sensor_id;sensor_type;location;lat;lon;timestamp;P1;durP1;ratioP1;P2;durP2;ratioP2
61741;SDS011;47650;49.848;9.620;2023-05-17T00:01:53;6.13;;;2.15;;
61741;SDS011;47650;49.848;9.620;2023-05-17T00:04:20;3.92;;;2.42;;
61741;SDS011;47650;49.848;9.620;2023-05-17T00:06:54;5.85;;;2.70;;
61741;SDS011;47650;49.848;9.620;2023-05-17T00:09:20;5.35;;;2.30;;
61741;SDS011;47650;49.848;9.620;2023-05-17T00:11:50;4.60;;;2.63;;
61741;SDS011;47650;49.848;9.620;2023-05-17T00:14:18;5.15;;;2.35;;
61741;SDS011;47650;49.848;9.620;2023-05-17T00:16:45;5.32;;;2.60;;
61741;SDS011;47650;49.848;9.620;2023-05-17T00:19:10;5.20;;;2.33;;
61741;SDS011;47650;49.848;9.620;2023-05-17T00:21:36;6.28;;;3.13;;
61741;SDS011;47650;49.848;9.620;2023-05-17T00:24:03;6.93;;;2.80;;
61741;SDS011;47650;49.848;9.620;2023-05-17T00:26:37;9.95;;;2.70;;
61741;SDS011;47650;49.848;9.620;2023-05-17T00:29:03;6.05;;;2.50;;
61741;SDS011;47650;49.848;9.620;2023-05-17T00:31:29;5.25;;;2.78;;
61741;SDS011;47650;49.848;9.620;2023-05-17T00:33:56;4.32;;;2.10;;
61741;SDS011;47650;49.848;9.620;2023-05-17T00:36:21;5.40;;;2.30;;
61741;SDS011;47650;49.848;9.620;2023-05-17T00:38:47;8.38;;;3.10;;
61741;SDS011;47650;49.848;9.620;2023-05-17T00:41:13;4.72;;;2.78;;
61741;SDS011;47650;49.848;9.620;2023-05-17T00:43:41;6.43;;;3.45;;
61741;SDS011;47650;49.848;9.620;2023-05-17T00:46:09;4.63;;;2.63;;
61741;SDS011;47650;49.848;9.620;2023-05-17T00:48:41;7.28;;;3.15;;
61741;SDS011;47650;49.848;9.620;2023-05-17T00:51:08;6.57;;;2.97;;
61741;SDS011;47650;49.848;9.620;2023-05-17T00:53:34;8.25;;;2.90;;
61741;SDS011;47650;49.848;9.620;2023-05-17T00:56:01;5.40;;;2.80;;
61741;SDS011;47650;49.848;9.620;2023-05-17T00:58:28;9.27;;;2.40;;
61741;SDS011;47650;49.848;9.620;2023-05-17T01:00:58;7.93;;;3.20;;
61741;SDS011;47650;49.848;9.620;2023-05-17T01:03:23;10.27;;;3.50;;
61741;SDS011;47650;49.848;9.620;2023-05-17T01:08:23;6.50;;;2.90;;
61741;SDS011;47650;49.848;9.620;2023-05-17T01:10:58;5.53;;;2.20;;
61741;SDS011;47650;49.848;9.620;2023-05-17T01:13:42;8.02;;;2.85;;
61741;SDS011;47650;49.848;9.620;2023-05-17T01:16:43;7.90;;;3.17;;
61741;SDS011;47650;49.848;9.620;2023-05-17T01:28:09;9.25;;;4.00;;
61741;SDS011;47650;49.848;9.620;2023-05-17T01:30:36;7.32;;;3.67;;
61741;SDS011;47650;49.848;9.620;2023-05-17T01:33:03;8.13;;;4.13;;
61741;SDS011;47650;49.848;9.620;2023-05-17T01:35:29;10.82;;;3.75;;
61741;SDS011;47650;49.848;9.620;2023-05-17T01:38:00;6.22;;;3.25;;
61741;SDS011;47650;49.848;9.620;2023-05-17T01:40:26;8.98;;;3.70;;
61741;SDS011;47650;49.848;9.620;2023-05-17T01:45:25;11.27;;;3.83;;
61741;SDS011;47650;49.848;9.620;2023-05-17T01:50:55;10.40;;;4.15;;
61741;SDS011;47650;49.848;9.620;2023-05-17T01:53:29;7.35;;;3.95;;
61741;SDS011;47650;49.848;9.620;2023-05-17T01:56:09;10.40;;;4.93;;
61741;SDS011;47650;49.848;9.620;2023-05-17T01:58:46;8.77;;;3.40;;
61741;SDS011;47650;49.848;9.620;2023-05-17T02:01:16;7.00;;;3.80;;
61741;SDS011;47650;49.848;9.620;2023-05-17T02:03:43;6.97;;;3.25;;
61741;SDS011;47650;49.848;9.620;2023-05-17T02:06:13;10.43;;;3.80;;
61741;SDS011;47650;49.848;9.620;2023-05-17T02:08:46;12.18;;;5.38;;
61741;SDS011;47650;49.848;9.620;2023-05-17T02:11:19;7.88;;;3.45;;
61741;SDS011;47650;49.848;9.620;2023-05-17T02:13:47;6.18;;;3.63;;
61741;SDS011;47650;49.848;9.620;2023-05-17T02:16:12;9.52;;;3.70;;
61741;SDS011;47650;49.848;9.620;2023-05-17T02:18:39;7.88;;;4.80;;
61741;SDS011;47650;49.848;9.620;2023-05-17T02:21:07;7.43;;;4.65;;
61741;SDS011;47650;49.848;9.620;2023-05-17T02:23:33;8.52;;;4.00;;
61741;SDS011;47650;49.848;9.620;2023-05-17T02:25:58;8.27;;;4.60;;
61741;SDS011;47650;49.848;9.620;2023-05-17T02:28:24;9.57;;;4.22;;
61741;SDS011;47650;49.848;9.620;2023-05-17T02:30:54;8.15;;;4.97;;
61741;SDS011;47650;49.848;9.620;2023-05-17T02:33:22;9.98;;;4.25;;
61741;SDS011;47650;49.848;9.620;2023-05-17T02:35:48;6.55;;;3.88;;
61741;SDS011;47650;49.848;9.620;2023-05-17T02:38:21;8.05;;;4.20;;
61741;SDS011;47650;49.848;9.620;2023-05-17T02:40:46;6.85;;;3.80;;
61741;SDS011;47650;49.848;9.620;2023-05-17T02:43:11;6.28;;;4.25;;
61741;SDS011;47650;49.848;9.620;2023-05-17T02:45:37;8.50;;;4.05;;
61741;SDS011;47650;49.848;9.620;2023-05-17T02:48:02;9.95;;;4.65;;
61741;SDS011;47650;49.848;9.620;2023-05-17T02:50:28;9.68;;;4.75;;
61741;SDS011;47650;49.848;9.620;2023-05-17T02:52:54;13.18;;;6.53;;
61741;SDS011;47650;49.848;9.620;2023-05-17T02:55:31;7.18;;;3.40;;
61741;SDS011;47650;49.848;9.620;2023-05-17T02:57:57;8.32;;;4.07;;
61741;SDS011;47650;49.848;9.620;2023-05-17T03:00:23;9.32;;;4.32;;
61741;SDS011;47650;49.848;9.620;2023-05-17T03:02:48;9.50;;;4.70;;
61741;SDS011;47650;49.848;9.620;2023-05-17T03:05:13;9.27;;;3.75;;
61741;SDS011;47650;49.848;9.620;2023-05-17T03:07:39;14.95;;;5.40;;
61741;SDS011;47650;49.848;9.620;2023-05-17T03:10:08;9.73;;;4.00;;
61741;SDS011;47650;49.848;9.620;2023-05-17T03:12:35;9.35;;;4.32;;
61741;SDS011;47650;49.848;9.620;2023-05-17T03:15:03;11.38;;;4.88;;
61741;SDS011;47650;49.848;9.620;2023-05-17T03:17:30;9.95;;;4.47;;
61741;SDS011;47650;49.848;9.620;2023-05-17T03:19:57;8.57;;;4.03;;
61741;SDS011;47650;49.848;9.620;2023-05-17T03:22:24;9.38;;;3.70;;
61741;SDS011;47650;49.848;9.620;2023-05-17T03:24:50;11.10;;;4.63;;
61741;SDS011;47650;49.848;9.620;2023-05-17T03:27:15;9.15;;;4.90;;
61741;SDS011;47650;49.848;9.620;2023-05-17T03:29:54;10.10;;;4.90;;
61741;SDS011;47650;49.848;9.620;2023-05-17T03:32:28;12.65;;;4.90;;
61741;SDS011;47650;49.848;9.620;2023-05-17T03:34:53;9.30;;;4.82;;
61741;SDS011;47650;49.848;9.620;2023-05-17T03:37:19;8.02;;;3.80;;
61741;SDS011;47650;49.848;9.620;2023-05-17T03:39:45;10.40;;;5.10;;
61741;SDS011;47650;49.848;9.620;2023-05-17T03:42:11;8.15;;;5.13;;
61741;SDS011;47650;49.848;9.620;2023-05-17T03:44:37;10.32;;;6.05;;
61741;SDS011;47650;49.848;9.620;2023-05-17T03:47:08;10.63;;;5.20;;
61741;SDS011;47650;49.848;9.620;2023-05-17T03:49:33;8.20;;;5.07;;
61741;SDS011;47650;49.848;9.620;2023-05-17T03:52:01;13.65;;;6.28;;
61741;SDS011;47650;49.848;9.620;2023-05-17T03:54:34;8.75;;;4.03;;
61741;SDS011;47650;49.848;9.620;2023-05-17T03:57:01;8.10;;;5.35;;
61741;SDS011;47650;49.848;9.620;2023-05-17T03:59:30;10.98;;;4.57;;
61741;SDS011;47650;49.848;9.620;2023-05-17T04:01:55;11.40;;;4.50;;
61741;SDS011;47650;49.848;9.620;2023-05-17T04:04:20;11.02;;;5.95;;
61741;SDS011;47650;49.848;9.620;2023-05-17T04:06:53;12.77;;;5.82;;
61741;SDS011;47650;49.848;9.620;2023-05-17T04:09:21;11.52;;;6.10;;
61741;SDS011;47650;49.848;9.620;2023-05-17T04:11:56;10.32;;;4.60;;
61741;SDS011;47650;49.848;9.620;2023-05-17T04:14:22;10.85;;;5.25;;
61741;SDS011;47650;49.848;9.620;2023-05-17T04:16:51;10.93;;;5.82;;
61741;SDS011;47650;49.848;9.620;2023-05-17T04:19:16;10.80;;;6.13;;
61741;SDS011;47650;49.848;9.620;2023-05-17T04:21:43;10.20;;;4.60;;
61741;SDS011;47650;49.848;9.620;2023-05-17T04:24:08;6.35;;;4.38;;
61741;SDS011;47650;49.848;9.620;2023-05-17T04:26:39;12.60;;;6.22;;
61741;SDS011;47650;49.848;9.620;2023-05-17T04:29:07;6.95;;;4.20;;
61741;SDS011;47650;49.848;9.620;2023-05-17T04:31:33;10.40;;;5.50;;
61741;SDS011;47650;49.848;9.620;2023-05-17T04:34:00;12.38;;;3.90;;
61741;SDS011;47650;49.848;9.620;2023-05-17T04:36:27;10.63;;;5.95;;
61741;SDS011;47650;49.848;9.620;2023-05-17T04:38:56;9.85;;;5.25;;
61741;SDS011;47650;49.848;9.620;2023-05-17T04:41:23;6.70;;;4.10;;
61741;SDS011;47650;49.848;9.620;2023-05-17T04:43:48;10.00;;;5.00;;
61741;SDS011;47650;49.848;9.620;2023-05-17T04:46:13;9.02;;;4.22;;
61741;SDS011;47650;49.848;9.620;2023-05-17T04:48:40;8.02;;;4.63;;
61741;SDS011;47650;49.848;9.620;2023-05-17T04:51:08;8.73;;;3.40;;
61741;SDS011;47650;49.848;9.620;2023-05-17T04:53:34;12.10;;;4.32;;
61741;SDS011;47650;49.848;9.620;2023-05-17T04:56:01;9.10;;;3.95;;
61741;SDS011;47650;49.848;9.620;2023-05-17T04:58:28;8.50;;;4.53;;
61741;SDS011;47650;49.848;9.620;2023-05-17T05:00:53;5.93;;;3.58;;
61741;SDS011;47650;49.848;9.620;2023-05-17T05:03:18;7.15;;;4.20;;
61741;SDS011;47650;49.848;9.620;2023-05-17T05:08:11;9.10;;;4.72;;
61741;SDS011;47650;49.848;9.620;2023-05-17T05:10:38;10.65;;;4.72;;
61741;SDS011;47650;49.848;9.620;2023-05-17T05:13:09;9.88;;;3.72;;
61741;SDS011;47650;49.848;9.620;2023-05-17T05:15:35;12.98;;;4.95;;
61741;SDS011;47650;49.848;9.620;2023-05-17T05:18:01;10.80;;;5.65;;
61741;SDS011;47650;49.848;9.620;2023-05-17T05:20:34;10.77;;;6.20;;
61741;SDS011;47650;49.848;9.620;2023-05-17T05:22:59;16.83;;;6.03;;
61741;SDS011;47650;49.848;9.620;2023-05-17T05:25:28;18.58;;;7.43;;
61741;SDS011;47650;49.848;9.620;2023-05-17T05:27:55;14.18;;;5.53;;
61741;SDS011;47650;49.848;9.620;2023-05-17T05:30:21;14.98;;;5.47;;
61741;SDS011;47650;49.848;9.620;2023-05-17T05:32:49;16.67;;;7.13;;
61741;SDS011;47650;49.848;9.620;2023-05-17T05:35:16;10.50;;;4.30;;
61741;SDS011;47650;49.848;9.620;2023-05-17T05:37:42;12.57;;;4.20;;
61741;SDS011;47650;49.848;9.620;2023-05-17T05:40:09;8.60;;;4.05;;
61741;SDS011;47650;49.848;9.620;2023-05-17T05:42:36;15.10;;;4.35;;
61741;SDS011;47650;49.848;9.620;2023-05-17T05:45:01;12.63;;;4.07;;
61741;SDS011;47650;49.848;9.620;2023-05-17T05:47:30;9.07;;;4.00;;
61741;SDS011;47650;49.848;9.620;2023-05-17T05:49:55;11.32;;;3.75;;
61741;SDS011;47650;49.848;9.620;2023-05-17T05:52:21;10.90;;;4.28;;
61741;SDS011;47650;49.848;9.620;2023-05-17T05:54:49;8.27;;;4.07;;
61741;SDS011;47650;49.848;9.620;2023-05-17T05:57:14;10.85;;;5.47;;
61741;SDS011;47650;49.848;9.620;2023-05-17T05:59:40;7.18;;;3.58;;
61741;SDS011;47650;49.848;9.620;2023-05-17T06:02:09;9.48;;;3.78;;
61741;SDS011;47650;49.848;9.620;2023-05-17T06:04:34;5.82;;;3.47;;
61741;SDS011;47650;49.848;9.620;2023-05-17T06:07:00;10.18;;;3.67;;
61741;SDS011;47650;49.848;9.620;2023-05-17T06:09:26;7.95;;;3.78;;
61741;SDS011;47650;49.848;9.620;2023-05-17T06:11:52;6.70;;;2.85;;
61741;SDS011;47650;49.848;9.620;2023-05-17T06:14:19;9.02;;;3.30;;
61741;SDS011;47650;49.848;9.620;2023-05-17T06:16:44;8.43;;;3.20;;
61741;SDS011;47650;49.848;9.620;2023-05-17T06:19:09;5.63;;;3.13;;
61741;SDS011;47650;49.848;9.620;2023-05-17T06:21:34;9.73;;;3.78;;
61741;SDS011;47650;49.848;9.620;2023-05-17T06:24:06;7.38;;;3.53;;
61741;SDS011;47650;49.848;9.620;2023-05-17T06:28:59;6.00;;;3.15;;
61741;SDS011;47650;49.848;9.620;2023-05-17T06:31:24;9.68;;;3.65;;
61741;SDS011;47650;49.848;9.620;2023-05-17T06:33:50;6.45;;;2.83;;
61741;SDS011;47650;49.848;9.620;2023-05-17T06:36:15;6.30;;;3.00;;
61741;SDS011;47650;49.848;9.620;2023-05-17T06:38:42;6.10;;;2.97;;
61741;SDS011;47650;49.848;9.620;2023-05-17T06:41:08;7.45;;;3.03;;
61741;SDS011;47650;49.848;9.620;2023-05-17T06:43:34;7.05;;;3.08;;
61741;SDS011;47650;49.848;9.620;2023-05-17T06:46:00;9.50;;;3.22;;
61741;SDS011;47650;49.848;9.620;2023-05-17T06:48:26;5.57;;;2.90;;
61741;SDS011;47650;49.848;9.620;2023-05-17T06:50:51;10.98;;;3.88;;
61741;SDS011;47650;49.848;9.620;2023-05-17T06:53:18;9.27;;;3.25;;
61741;SDS011;47650;49.848;9.620;2023-05-17T06:58:11;6.03;;;3.40;;
61741;SDS011;47650;49.848;9.620;2023-05-17T07:00:38;8.13;;;4.03;;
61741;SDS011;47650;49.848;9.620;2023-05-17T07:03:04;6.20;;;3.75;;
61741;SDS011;47650;49.848;9.620;2023-05-17T07:05:29;6.03;;;3.30;;
61741;SDS011;47650;49.848;9.620;2023-05-17T07:08:00;8.27;;;3.40;;
61741;SDS011;47650;49.848;9.620;2023-05-17T07:10:31;5.38;;;3.05;;
61741;SDS011;47650;49.848;9.620;2023-05-17T07:12:56;6.35;;;3.30;;
61741;SDS011;47650;49.848;9.620;2023-05-17T07:15:22;7.55;;;3.38;;
61741;SDS011;47650;49.848;9.620;2023-05-17T07:17:47;7.47;;;3.20;;
61741;SDS011;47650;49.848;9.620;2023-05-17T07:20:12;8.95;;;3.80;;
61741;SDS011;47650;49.848;9.620;2023-05-17T07:22:39;8.32;;;3.90;;
61741;SDS011;47650;49.848;9.620;2023-05-17T07:25:04;5.78;;;3.42;;
61741;SDS011;47650;49.848;9.620;2023-05-17T07:27:31;8.25;;;3.55;;
61741;SDS011;47650;49.848;9.620;2023-05-17T07:29:59;6.70;;;3.33;;
61741;SDS011;47650;49.848;9.620;2023-05-17T07:32:25;8.80;;;3.50;;
61741;SDS011;47650;49.848;9.620;2023-05-17T07:34:52;8.40;;;3.50;;
61741;SDS011;47650;49.848;9.620;2023-05-17T07:37:17;6.43;;;3.45;;
61741;SDS011;47650;49.848;9.620;2023-05-17T07:39:43;7.80;;;4.15;;
61741;SDS011;47650;49.848;9.620;2023-05-17T07:42:10;6.60;;;3.05;;
61741;SDS011;47650;49.848;9.620;2023-05-17T07:44:36;8.00;;;3.40;;
61741;SDS011;47650;49.848;9.620;2023-05-17T07:47:04;6.45;;;3.40;;
61741;SDS011;47650;49.848;9.620;2023-05-17T07:49:32;7.25;;;3.60;;
61741;SDS011;47650;49.848;9.620;2023-05-17T07:51:58;7.47;;;3.78;;
61741;SDS011;47650;49.848;9.620;2023-05-17T07:54:26;6.10;;;3.50;;
61741;SDS011;47650;49.848;9.620;2023-05-17T07:56:52;7.80;;;3.92;;
61741;SDS011;47650;49.848;9.620;2023-05-17T07:59:19;8.50;;;4.25;;
61741;SDS011;47650;49.848;9.620;2023-05-17T08:01:49;8.27;;;4.07;;
61741;SDS011;47650;49.848;9.620;2023-05-17T08:04:22;8.95;;;3.70;;
61741;SDS011;47650;49.848;9.620;2023-05-17T08:06:50;7.88;;;3.38;;
61741;SDS011;47650;49.848;9.620;2023-05-17T08:09:15;9.48;;;3.85;;
61741;SDS011;47650;49.848;9.620;2023-05-17T08:11:41;7.68;;;4.00;;
61741;SDS011;47650;49.848;9.620;2023-05-17T08:14:11;7.97;;;3.65;;
61741;SDS011;47650;49.848;9.620;2023-05-17T08:16:40;6.43;;;3.38;;
61741;SDS011;47650;49.848;9.620;2023-05-17T08:19:10;7.97;;;3.80;;
61741;SDS011;47650;49.848;9.620;2023-05-17T08:21:41;11.40;;;4.20;;
61741;SDS011;47650;49.848;9.620;2023-05-17T08:24:07;8.43;;;3.47;;
61741;SDS011;47650;49.848;9.620;2023-05-17T08:26:32;7.72;;;3.55;;
61741;SDS011;47650;49.848;9.620;2023-05-17T08:28:58;7.45;;;3.60;;
61741;SDS011;47650;49.848;9.620;2023-05-17T08:31:25;10.00;;;4.03;;
61741;SDS011;47650;49.848;9.620;2023-05-17T08:33:51;6.43;;;3.22;;
61741;SDS011;47650;49.848;9.620;2023-05-17T08:36:17;7.50;;;3.45;;
61741;SDS011;47650;49.848;9.620;2023-05-17T08:38:42;7.63;;;3.65;;
61741;SDS011;47650;49.848;9.620;2023-05-17T08:41:09;6.85;;;3.88;;
61741;SDS011;47650;49.848;9.620;2023-05-17T08:43:39;9.77;;;3.63;;
61741;SDS011;47650;49.848;9.620;2023-05-17T08:46:06;8.60;;;3.28;;
61741;SDS011;47650;49.848;9.620;2023-05-17T08:48:33;8.13;;;3.67;;
61741;SDS011;47650;49.848;9.620;2023-05-17T08:51:03;6.45;;;3.40;;
61741;SDS011;47650;49.848;9.620;2023-05-17T08:53:30;7.05;;;3.80;;
61741;SDS011;47650;49.848;9.620;2023-05-17T08:55:56;7.55;;;3.35;;
61741;SDS011;47650;49.848;9.620;2023-05-17T08:58:24;5.88;;;3.03;;
61741;SDS011;47650;49.848;9.620;2023-05-17T09:00:54;5.00;;;3.10;;
61741;SDS011;47650;49.848;9.620;2023-05-17T09:03:20;7.65;;;3.40;;
61741;SDS011;47650;49.848;9.620;2023-05-17T09:05:50;6.45;;;3.55;;
61741;SDS011;47650;49.848;9.620;2023-05-17T09:08:22;5.63;;;3.03;;
61741;SDS011;47650;49.848;9.620;2023-05-17T09:10:48;6.78;;;3.45;;
61741;SDS011;47650;49.848;9.620;2023-05-17T09:13:13;8.57;;;7.32;;
61741;SDS011;47650;49.848;9.620;2023-05-17T09:15:43;7.90;;;3.60;;
61741;SDS011;47650;49.848;9.620;2023-05-17T09:18:16;7.20;;;3.50;;
61741;SDS011;47650;49.848;9.620;2023-05-17T09:20:41;5.45;;;2.95;;
61741;SDS011;47650;49.848;9.620;2023-05-17T09:23:14;6.75;;;2.92;;
61741;SDS011;47650;49.848;9.620;2023-05-17T09:25:47;5.93;;;3.00;;
61741;SDS011;47650;49.848;9.620;2023-05-17T09:28:13;8.05;;;3.75;;
61741;SDS011;47650;49.848;9.620;2023-05-17T09:30:39;8.30;;;3.30;;
61741;SDS011;47650;49.848;9.620;2023-05-17T09:33:06;8.73;;;3.58;;
61741;SDS011;47650;49.848;9.620;2023-05-17T09:35:36;6.20;;;3.03;;
61741;SDS011;47650;49.848;9.620;2023-05-17T09:38:06;7.93;;;3.30;;
61741;SDS011;47650;49.848;9.620;2023-05-17T09:40:39;8.73;;;3.38;;
61741;SDS011;47650;49.848;9.620;2023-05-17T09:43:08;6.88;;;4.03;;
61741;SDS011;47650;49.848;9.620;2023-05-17T09:45:34;7.40;;;3.78;;
61741;SDS011;47650;49.848;9.620;2023-05-17T09:48:10;6.28;;;3.17;;
61741;SDS011;47650;49.848;9.620;2023-05-17T09:50:43;6.75;;;3.53;;
61741;SDS011;47650;49.848;9.620;2023-05-17T09:53:25;8.35;;;3.42;;
61741;SDS011;47650;49.848;9.620;2023-05-17T09:55:56;6.65;;;3.08;;
61741;SDS011;47650;49.848;9.620;2023-05-17T09:58:24;5.63;;;3.03;;
61741;SDS011;47650;49.848;9.620;2023-05-17T10:00:54;7.05;;;3.63;;
61741;SDS011;47650;49.848;9.620;2023-05-17T10:03:45;7.60;;;3.10;;
61741;SDS011;47650;49.848;9.620;2023-05-17T10:06:10;5.57;;;3.08;;
61741;SDS011;47650;49.848;9.620;2023-05-17T10:08:37;6.05;;;3.25;;
61741;SDS011;47650;49.848;9.620;2023-05-17T10:11:11;7.63;;;3.22;;
61741;SDS011;47650;49.848;9.620;2023-05-17T10:13:48;6.43;;;3.22;;
61741;SDS011;47650;49.848;9.620;2023-05-17T10:16:31;9.07;;;3.20;;
61741;SDS011;47650;49.848;9.620;2023-05-17T10:18:59;6.43;;;3.17;;
61741;SDS011;47650;49.848;9.620;2023-05-17T10:21:28;7.68;;;2.90;;
61741;SDS011;47650;49.848;9.620;2023-05-17T10:23:55;5.70;;;2.72;;
61741;SDS011;47650;49.848;9.620;2023-05-17T10:26:22;4.78;;;2.88;;
61741;SDS011;47650;49.848;9.620;2023-05-17T10:28:50;6.68;;;3.45;;
61741;SDS011;47650;49.848;9.620;2023-05-17T10:31:20;6.80;;;3.42;;
61741;SDS011;47650;49.848;9.620;2023-05-17T10:33:46;7.50;;;3.67;;
61741;SDS011;47650;49.848;9.620;2023-05-17T10:36:16;4.97;;;3.30;;
61741;SDS011;47650;49.848;9.620;2023-05-17T10:38:42;5.45;;;3.13;;
61741;SDS011;47650;49.848;9.620;2023-05-17T10:41:08;6.65;;;3.30;;
61741;SDS011;47650;49.848;9.620;2023-05-17T10:43:36;4.43;;;2.70;;
61741;SDS011;47650;49.848;9.620;2023-05-17T10:46:10;5.85;;;2.83;;
61741;SDS011;47650;49.848;9.620;2023-05-17T10:48:50;6.70;;;3.03;;
61741;SDS011;47650;49.848;9.620;2023-05-17T10:51:23;6.72;;;3.30;;
61741;SDS011;47650;49.848;9.620;2023-05-17T10:56:38;5.88;;;3.10;;
61741;SDS011;47650;49.848;9.620;2023-05-17T10:59:24;6.70;;;3.15;;
61741;SDS011;47650;49.848;9.620;2023-05-17T11:02:05;5.00;;;2.63;;
61741;SDS011;47650;49.848;9.620;2023-05-17T11:04:40;6.07;;;2.60;;
61741;SDS011;47650;49.848;9.620;2023-05-17T11:09:54;5.97;;;3.25;;
61741;SDS011;47650;49.848;9.620;2023-05-17T11:12:33;6.95;;;2.92;;
61741;SDS011;47650;49.848;9.620;2023-05-17T11:15:14;6.57;;;2.88;;
61741;SDS011;47650;49.848;9.620;2023-05-17T11:25:34;6.93;;;3.15;;
61741;SDS011;47650;49.848;9.620;2023-05-17T11:28:11;6.78;;;2.53;;
61741;SDS011;47650;49.848;9.620;2023-05-17T11:30:42;4.55;;;2.83;;
61741;SDS011;47650;49.848;9.620;2023-05-17T11:33:14;4.80;;;2.85;;
61741;SDS011;47650;49.848;9.620;2023-05-17T11:35:40;5.90;;;2.83;;
61741;SDS011;47650;49.848;9.620;2023-05-17T11:38:15;4.60;;;2.67;;
61741;SDS011;47650;49.848;9.620;2023-05-17T11:40:47;7.07;;;2.72;;
61741;SDS011;47650;49.848;9.620;2023-05-17T11:43:19;6.55;;;2.83;;
61741;SDS011;47650;49.848;9.620;2023-05-17T11:48:20;4.47;;;2.95;;
61741;SDS011;47650;49.848;9.620;2023-05-17T11:50:54;5.65;;;3.35;;
61741;SDS011;47650;49.848;9.620;2023-05-17T11:53:25;6.00;;;2.97;;
61741;SDS011;47650;49.848;9.620;2023-05-17T11:55:53;5.28;;;2.72;;
61741;SDS011;47650;49.848;9.620;2023-05-17T11:58:22;6.78;;;3.08;;
61741;SDS011;47650;49.848;9.620;2023-05-17T12:00:53;6.57;;;3.47;;
61741;SDS011;47650;49.848;9.620;2023-05-17T12:03:24;4.82;;;2.88;;
61741;SDS011;47650;49.848;9.620;2023-05-17T12:05:54;8.48;;;3.25;;
61741;SDS011;47650;49.848;9.620;2023-05-17T12:08:27;6.10;;;2.53;;
61741;SDS011;47650;49.848;9.620;2023-05-17T12:10:53;5.72;;;2.60;;
61741;SDS011;47650;49.848;9.620;2023-05-17T12:13:21;5.28;;;2.83;;
61741;SDS011;47650;49.848;9.620;2023-05-17T12:15:53;5.15;;;3.13;;
61741;SDS011;47650;49.848;9.620;2023-05-17T12:18:35;4.70;;;2.47;;
61741;SDS011;47650;49.848;9.620;2023-05-17T12:21:05;7.05;;;3.15;;
61741;SDS011;47650;49.848;9.620;2023-05-17T12:23:34;6.93;;;3.05;;
61741;SDS011;47650;49.848;9.620;2023-05-17T12:26:10;4.78;;;2.67;;
61741;SDS011;47650;49.848;9.620;2023-05-17T12:28:43;6.63;;;3.00;;
61741;SDS011;47650;49.848;9.620;2023-05-17T12:31:31;4.65;;;2.65;;
61741;SDS011;47650;49.848;9.620;2023-05-17T12:33:58;4.43;;;2.80;;
61741;SDS011;47650;49.848;9.620;2023-05-17T12:36:26;5.28;;;2.80;;
61741;SDS011;47650;49.848;9.620;2023-05-17T12:38:54;5.55;;;2.83;;
61741;SDS011;47650;49.848;9.620;2023-05-17T12:41:20;4.05;;;2.60;;
61741;SDS011;47650;49.848;9.620;2023-05-17T12:43:49;5.15;;;2.58;;
61741;SDS011;47650;49.848;9.620;2023-05-17T12:46:15;5.75;;;3.30;;
61741;SDS011;47650;49.848;9.620;2023-05-17T12:48:43;4.95;;;3.00;;
61741;SDS011;47650;49.848;9.620;2023-05-17T12:51:09;5.18;;;3.38;;
61741;SDS011;47650;49.848;9.620;2023-05-17T12:53:36;6.53;;;3.17;;
61741;SDS011;47650;49.848;9.620;2023-05-17T12:56:02;5.35;;;3.45;;
61741;SDS011;47650;49.848;9.620;2023-05-17T12:58:31;6.60;;;2.80;;
61741;SDS011;47650;49.848;9.620;2023-05-17T13:01:00;8.55;;;2.90;;
61741;SDS011;47650;49.848;9.620;2023-05-17T13:03:26;4.57;;;2.80;;
61741;SDS011;47650;49.848;9.620;2023-05-17T13:06:04;5.53;;;3.17;;
61741;SDS011;47650;49.848;9.620;2023-05-17T13:08:33;5.07;;;2.63;;
61741;SDS011;47650;49.848;9.620;2023-05-17T13:11:05;5.97;;;3.00;;
61741;SDS011;47650;49.848;9.620;2023-05-17T13:13:33;5.78;;;2.90;;
61741;SDS011;47650;49.848;9.620;2023-05-17T13:15:59;6.30;;;3.15;;
61741;SDS011;47650;49.848;9.620;2023-05-17T13:18:24;6.80;;;2.80;;
61741;SDS011;47650;49.848;9.620;2023-05-17T13:20:56;5.50;;;2.97;;
61741;SDS011;47650;49.848;9.620;2023-05-17T13:23:21;4.93;;;2.95;;
61741;SDS011;47650;49.848;9.620;2023-05-17T13:25:46;4.00;;;2.70;;
61741;SDS011;47650;49.848;9.620;2023-05-17T13:28:19;4.40;;;2.90;;
61741;SDS011;47650;49.848;9.620;2023-05-17T13:30:46;7.88;;;3.55;;
61741;SDS011;47650;49.848;9.620;2023-05-17T13:33:16;5.38;;;4.22;;
61741;SDS011;47650;49.848;9.620;2023-05-17T13:35:44;4.82;;;3.30;;
61741;SDS011;47650;49.848;9.620;2023-05-17T13:38:09;5.03;;;3.08;;
61741;SDS011;47650;49.848;9.620;2023-05-17T13:40:35;6.57;;;3.30;;
61741;SDS011;47650;49.848;9.620;2023-05-17T13:43:01;4.85;;;3.35;;
61741;SDS011;47650;49.848;9.620;2023-05-17T13:45:27;4.57;;;2.83;;
61741;SDS011;47650;49.848;9.620;2023-05-17T13:47:52;5.78;;;3.20;;
61741;SDS011;47650;49.848;9.620;2023-05-17T13:50:18;4.50;;;3.00;;
61741;SDS011;47650;49.848;9.620;2023-05-17T13:52:44;6.45;;;3.33;;
61741;SDS011;47650;49.848;9.620;2023-05-17T13:55:11;5.65;;;2.67;;
61741;SDS011;47650;49.848;9.620;2023-05-17T13:57:37;4.07;;;2.90;;
61741;SDS011;47650;49.848;9.620;2023-05-17T14:00:04;4.03;;;2.83;;
61741;SDS011;47650;49.848;9.620;2023-05-17T14:02:30;5.32;;;2.90;;
61741;SDS011;47650;49.848;9.620;2023-05-17T14:04:56;4.83;;;3.00;;
61741;SDS011;47650;49.848;9.620;2023-05-17T14:07:21;5.05;;;2.85;;
61741;SDS011;47650;49.848;9.620;2023-05-17T14:09:47;5.10;;;2.75;;
61741;SDS011;47650;49.848;9.620;2023-05-17T14:12:12;6.63;;;3.08;;
61741;SDS011;47650;49.848;9.620;2023-05-17T14:14:38;5.25;;;3.20;;
61741;SDS011;47650;49.848;9.620;2023-05-17T14:17:04;3.88;;;2.63;;
61741;SDS011;47650;49.848;9.620;2023-05-17T14:19:30;4.25;;;2.58;;
61741;SDS011;47650;49.848;9.620;2023-05-17T14:21:55;5.13;;;2.80;;
61741;SDS011;47650;49.848;9.620;2023-05-17T14:24:20;6.00;;;2.47;;
61741;SDS011;47650;49.848;9.620;2023-05-17T14:26:46;7.55;;;3.10;;
61741;SDS011;47650;49.848;9.620;2023-05-17T14:29:11;6.20;;;3.13;;
61741;SDS011;47650;49.848;9.620;2023-05-17T14:31:37;5.95;;;3.03;;
61741;SDS011;47650;49.848;9.620;2023-05-17T14:34:02;4.28;;;2.90;;
61741;SDS011;47650;49.848;9.620;2023-05-17T14:36:27;6.50;;;3.17;;
61741;SDS011;47650;49.848;9.620;2023-05-17T14:38:53;6.57;;;3.22;;
61741;SDS011;47650;49.848;9.620;2023-05-17T14:41:18;4.03;;;2.53;;
61741;SDS011;47650;49.848;9.620;2023-05-17T14:43:43;5.75;;;2.78;;
61741;SDS011;47650;49.848;9.620;2023-05-17T14:46:10;5.45;;;3.00;;
61741;SDS011;47650;49.848;9.620;2023-05-17T14:48:36;4.43;;;2.60;;
61741;SDS011;47650;49.848;9.620;2023-05-17T14:51:01;5.72;;;2.22;;
61741;SDS011;47650;49.848;9.620;2023-05-17T14:53:27;5.63;;;2.60;;
61741;SDS011;47650;49.848;9.620;2023-05-17T14:55:53;4.82;;;2.58;;
61741;SDS011;47650;49.848;9.620;2023-05-17T14:58:24;5.15;;;2.90;;
61741;SDS011;47650;49.848;9.620;2023-05-17T15:00:52;5.20;;;2.53;;
61741;SDS011;47650;49.848;9.620;2023-05-17T15:03:22;7.03;;;2.90;;
61741;SDS011;47650;49.848;9.620;2023-05-17T15:05:54;5.60;;;2.60;;
61741;SDS011;47650;49.848;9.620;2023-05-17T15:08:20;5.40;;;2.58;;
61741;SDS011;47650;49.848;9.620;2023-05-17T15:10:45;7.05;;;3.05;;
61741;SDS011;47650;49.848;9.620;2023-05-17T15:13:15;5.15;;;3.00;;
61741;SDS011;47650;49.848;9.620;2023-05-17T15:15:42;5.15;;;2.42;;
61741;SDS011;47650;49.848;9.620;2023-05-17T15:18:08;4.47;;;2.38;;
61741;SDS011;47650;49.848;9.620;2023-05-17T15:20:36;4.32;;;2.50;;
61741;SDS011;47650;49.848;9.620;2023-05-17T15:23:02;4.15;;;2.47;;
61741;SDS011;47650;49.848;9.620;2023-05-17T15:25:29;6.07;;;2.60;;
61741;SDS011;47650;49.848;9.620;2023-05-17T15:27:55;7.32;;;2.80;;
61741;SDS011;47650;49.848;9.620;2023-05-17T15:30:20;4.37;;;2.70;;
61741;SDS011;47650;49.848;9.620;2023-05-17T15:32:55;5.32;;;3.30;;